createdAt,value
2024-03-27T00:03:19.503Z,0
2024-03-27T00:18:15.471Z,0
2024-03-27T00:33:11.207Z,0
2024-03-27T00:48:07.726Z,0
2024-03-27T01:03:03.962Z,0
2024-03-27T01:18:00.428Z,0
2024-03-27T01:32:56.190Z,0
2024-03-27T01:47:52.300Z,0
2024-03-27T02:02:48.802Z,0
2024-03-27T02:17:44.456Z,0
2024-03-27T02:32:40.585Z,0
2024-03-27T02:47:36.399Z,0
2024-03-27T03:02:32.314Z,0
2024-03-27T03:17:28.513Z,0
2024-03-27T03:32:24.563Z,0
2024-03-27T03:47:20.652Z,0
2024-03-27T04:02:16.343Z,0
2024-03-27T04:17:12.234Z,0
2024-03-27T04:32:08.314Z,0
2024-03-27T04:47:04.289Z,0.01
2024-03-27T05:02:00.545Z,0.01
2024-03-27T05:16:56.841Z,0.02
2024-03-27T05:31:53.090Z,0
2024-03-27T05:46:49.142Z,0.02
2024-03-27T06:01:44.595Z,0.02
2024-03-27T06:16:41.030Z,0.05
2024-03-27T06:31:37.545Z,0.05
2024-03-27T06:46:33.525Z,0.05
2024-03-27T07:16:26.592Z,0.08
2024-03-27T07:31:23.143Z,0.07
2024-03-27T07:46:19.699Z,0.07
2024-03-27T08:01:16.457Z,0.1
2024-03-27T08:16:12.632Z,0.08
2024-03-27T08:31:09.528Z,0.15
2024-03-27T08:46:05.499Z,0.1
2024-03-27T09:01:02.226Z,0.1
2024-03-27T09:15:58.314Z,0.14
2024-03-27T09:30:55.081Z,0.11
2024-03-27T09:45:51.132Z,0.1
2024-03-27T10:00:47.471Z,0.18
2024-03-27T10:15:44.318Z,0.14
2024-03-27T10:30:40.546Z,0.16
2024-03-27T10:45:36.952Z,0.19
2024-03-27T11:00:33.702Z,0.18
2024-03-27T11:15:30.217Z,0.21
2024-03-27T11:30:28.508Z,0.15
2024-03-27T11:45:22.495Z,0.16
2024-03-27T12:00:18.640Z,0.11
2024-03-27T12:15:14.532Z,0.11
2024-03-27T12:30:10.471Z,0.11
2024-03-27T12:45:06.623Z,0.01
2024-03-27T13:00:02.145Z,0.1
2024-03-27T13:14:58.129Z,0.1
2024-03-27T13:29:54.057Z,0.07
2024-03-27T13:44:49.827Z,0.09
2024-03-27T13:59:45.689Z,0.08
2024-03-27T14:14:41.711Z,0.06
2024-03-27T14:29:37.978Z,0.07
2024-03-27T14:38:25.575Z,0.06
2024-03-27T14:53:21.450Z,0.09
2024-03-27T15:08:17.144Z,0.07
2024-03-27T15:23:13.262Z,0.06
2024-03-27T15:38:09.813Z,0.06
2024-03-27T15:53:06.016Z,0.04
2024-03-27T16:08:02.228Z,0.03
2024-03-27T16:22:57.936Z,0.03
2024-03-27T16:37:53.816Z,0.05
2024-03-27T16:52:50.082Z,0.05
2024-03-27T17:07:46.670Z,0.03
2024-03-27T17:22:42.576Z,0.03
2024-03-27T17:37:38.740Z,0.01
2024-03-27T17:52:35.095Z,0.02
2024-03-27T18:07:30.839Z,0.01
2024-03-27T18:22:26.329Z,0.01
2024-03-27T18:37:22.402Z,0
2024-03-27T18:52:18.555Z,0
2024-03-27T19:07:14.719Z,0
2024-03-27T19:22:10.675Z,0
2024-03-27T19:37:06.446Z,0
2024-03-27T19:52:06.014Z,0
2024-03-27T20:06:58.377Z,0
2024-03-27T20:21:54.579Z,0
2024-03-27T20:51:47.181Z,0
2024-03-27T21:06:43.730Z,0
2024-03-27T21:21:40.014Z,0
2024-03-27T21:36:36.187Z,0
2024-03-27T21:51:32.509Z,0
2024-03-27T22:06:28.835Z,0
2024-03-27T22:21:25.528Z,0
2024-03-27T22:36:21.437Z,0
2024-03-27T22:51:17.088Z,0
2024-03-27T23:06:13.741Z,0
2024-03-27T23:21:09.700Z,0
2024-03-27T23:36:06.537Z,0
2024-03-27T23:51:02.913Z,0
